createdAt,value
2023-05-22T00:01:22.881Z,10.27
2023-05-22T00:03:51.024Z,10.63
2023-05-22T00:06:18.702Z,11.13
2023-05-22T00:08:45.697Z,9.40
2023-05-22T00:11:12.747Z,11.07
2023-05-22T00:13:39.674Z,10.50
2023-05-22T00:16:06.993Z,11.97
2023-05-22T00:18:33.861Z,11.07
2023-05-22T00:21:00.772Z,11.47
2023-05-22T00:23:28.458Z,10.87
2023-05-22T00:25:55.428Z,10.57
2023-05-22T00:28:22.386Z,11.03
2023-05-22T00:30:49.243Z,12.90
2023-05-22T00:33:16.455Z,11.50
2023-05-22T00:35:43.337Z,12.10
2023-05-22T00:38:27.024Z,11.03
2023-05-22T00:40:54.370Z,12.40
2023-05-22T00:43:21.769Z,12.37
2023-05-22T00:45:48.775Z,12.23
2023-05-22T00:48:15.826Z,12.50
2023-05-22T00:50:44.295Z,11.70
2023-05-22T00:53:11.544Z,13.03
2023-05-22T00:55:38.714Z,12.20
2023-05-22T00:58:09.461Z,12.40
2023-05-22T01:00:38.313Z,12.00
2023-05-22T01:03:08.238Z,12.27
2023-05-22T01:05:40.050Z,13.43
2023-05-22T01:08:08.693Z,11.73
2023-05-22T01:10:38.097Z,11.07
2023-05-22T01:13:09.759Z,13.30
2023-05-22T01:16:01.839Z,12.30
2023-05-22T01:18:37.880Z,12.97
2023-05-22T01:21:22.304Z,13.47
2023-05-22T01:24:21.241Z,14.47
2023-05-22T01:27:11.984Z,11.83
2023-05-22T01:30:00.189Z,13.73
2023-05-22T01:32:29.322Z,11.90
2023-05-22T01:35:01.340Z,12.77
2023-05-22T01:37:28.715Z,14.60
2023-05-22T01:39:56.546Z,12.80
2023-05-22T01:42:23.832Z,13.43
2023-05-22T01:44:50.806Z,13.77
2023-05-22T01:47:18.348Z,12.07
2023-05-22T01:49:47.477Z,12.47
2023-05-22T01:52:36.576Z,13.90
2023-05-22T01:55:22.987Z,12.30
2023-05-22T01:57:59.889Z,11.60
2023-05-22T02:00:29.315Z,12.00
2023-05-22T02:03:07.892Z,13.47
2023-05-22T02:05:39.161Z,13.73
2023-05-22T02:08:07.101Z,13.03
2023-05-22T02:10:35.433Z,14.60
2023-05-22T02:13:02.555Z,12.93
2023-05-22T02:15:30.128Z,13.40
2023-05-22T02:18:00.620Z,13.80
2023-05-22T02:20:27.691Z,14.80
2023-05-22T02:22:54.548Z,13.10
2023-05-22T02:25:21.608Z,13.23
2023-05-22T02:27:49.895Z,14.27
2023-05-22T02:30:17.030Z,12.77
2023-05-22T02:32:46.245Z,13.10
2023-05-22T02:35:13.268Z,13.13
2023-05-22T02:37:40.371Z,16.80
2023-05-22T02:40:07.842Z,11.77
2023-05-22T02:42:35.062Z,13.50
2023-05-22T02:45:02.944Z,15.77
2023-05-22T02:47:30.222Z,12.20
2023-05-22T02:49:58.206Z,14.27
2023-05-22T02:52:25.228Z,12.47
2023-05-22T02:54:52.144Z,13.87
2023-05-22T02:57:20.202Z,14.40
2023-05-22T02:59:47.115Z,14.37
2023-05-22T03:02:15.574Z,14.17
2023-05-22T03:04:42.539Z,13.33
2023-05-22T03:07:09.415Z,14.10
2023-05-22T03:09:36.453Z,12.63
2023-05-22T03:12:03.634Z,14.67
2023-05-22T03:14:30.723Z,13.23
2023-05-22T03:16:59.168Z,12.83
2023-05-22T03:19:26.854Z,15.23
2023-05-22T03:21:54.054Z,14.33
2023-05-22T03:24:22.234Z,14.33
2023-05-22T03:26:49.135Z,15.17
2023-05-22T03:29:21.970Z,13.90
2023-05-22T03:31:48.968Z,16.87
2023-05-22T03:34:16.883Z,16.80
2023-05-22T03:36:46.487Z,14.57
2023-05-22T03:39:15.922Z,12.77
2023-05-22T03:41:51.485Z,14.50
2023-05-22T03:44:18.944Z,16.63
2023-05-22T03:46:46.559Z,16.27
2023-05-22T03:49:13.469Z,15.73
2023-05-22T03:51:40.340Z,13.43
2023-05-22T03:54:07.277Z,16.70
2023-05-22T03:56:35.657Z,15.53
2023-05-22T03:59:02.808Z,16.17
2023-05-22T04:01:30.126Z,16.20
2023-05-22T04:03:57.029Z,14.27
2023-05-22T04:06:23.981Z,14.67
2023-05-22T04:08:50.898Z,15.67
2023-05-22T04:11:19.566Z,15.40
2023-05-22T04:13:49.382Z,16.53
2023-05-22T04:16:17.699Z,18.50
2023-05-22T04:18:44.984Z,17.63
2023-05-22T04:21:12.994Z,18.97
2023-05-22T04:23:43.461Z,15.67
2023-05-22T04:26:10.559Z,19.20
2023-05-22T04:28:38.186Z,16.00
2023-05-22T04:31:06.931Z,19.10
2023-05-22T04:33:34.900Z,16.93
2023-05-22T04:36:02.583Z,16.27
2023-05-22T04:38:29.530Z,16.20
2023-05-22T04:40:57.251Z,19.07
2023-05-22T04:43:26.894Z,15.57
2023-05-22T04:45:55.013Z,17.70
2023-05-22T04:48:25.257Z,15.43
2023-05-22T04:50:52.307Z,17.37
2023-05-22T04:53:19.209Z,16.83
2023-05-22T04:55:46.373Z,19.70
2023-05-22T04:58:13.276Z,16.63
2023-05-22T05:00:40.395Z,19.60
2023-05-22T05:03:08.575Z,16.33
2023-05-22T05:05:35.608Z,20.00
2023-05-22T05:08:02.690Z,16.83
2023-05-22T05:10:29.638Z,15.70
2023-05-22T05:12:56.840Z,17.33
2023-05-22T05:15:24.099Z,18.03
2023-05-22T05:17:51.239Z,16.23
2023-05-22T05:20:18.119Z,16.43
2023-05-22T05:22:46.405Z,18.17
2023-05-22T05:25:14.757Z,14.77
2023-05-22T05:27:42.494Z,14.50
2023-05-22T05:30:10.956Z,14.67
2023-05-22T05:32:49.194Z,14.00
2023-05-22T05:35:33.000Z,12.53
2023-05-22T05:38:04.127Z,12.43
2023-05-22T05:40:32.919Z,11.57
2023-05-22T05:42:59.867Z,11.70
2023-05-22T05:45:28.276Z,10.50
2023-05-22T05:47:56.356Z,11.17
2023-05-22T05:50:24.039Z,11.20
2023-05-22T05:52:50.964Z,11.77
2023-05-22T05:55:19.626Z,10.53
2023-05-22T05:57:47.614Z,12.40
2023-05-22T06:00:21.139Z,10.53
2023-05-22T06:02:50.899Z,10.53
2023-05-22T06:05:42.758Z,11.27
2023-05-22T06:08:20.053Z,11.30
2023-05-22T06:10:47.542Z,10.70
2023-05-22T06:13:32.273Z,11.10
2023-05-22T06:16:02.164Z,11.63
2023-05-22T06:18:31.488Z,12.33
2023-05-22T06:20:59.312Z,11.40
2023-05-22T06:23:26.568Z,10.90
2023-05-22T06:25:55.693Z,12.60
2023-05-22T06:28:23.621Z,11.80
2023-05-22T06:30:50.489Z,11.87
2023-05-22T06:33:20.440Z,11.00
2023-05-22T06:35:47.905Z,10.10
2023-05-22T06:38:16.099Z,13.33
2023-05-22T06:40:44.108Z,10.57
2023-05-22T06:43:18.486Z,11.70
2023-05-22T06:45:50.554Z,10.00
2023-05-22T06:48:23.247Z,10.67
2023-05-22T06:51:15.225Z,10.10
2023-05-22T06:53:45.357Z,10.97
2023-05-22T06:56:16.703Z,11.60
2023-05-22T06:59:06.123Z,11.03
2023-05-22T07:01:52.953Z,10.73
2023-05-22T07:04:29.594Z,10.33
2023-05-22T07:07:00.169Z,11.10
2023-05-22T07:09:28.260Z,11.20
2023-05-22T07:11:55.202Z,10.73
2023-05-22T07:14:22.115Z,11.03
2023-05-22T07:16:49.228Z,11.40
2023-05-22T07:19:21.746Z,10.87
2023-05-22T07:21:48.649Z,10.60
2023-05-22T07:24:18.666Z,12.80
2023-05-22T07:26:48.710Z,10.90
2023-05-22T07:29:17.217Z,11.47
2023-05-22T07:31:47.539Z,12.27
2023-05-22T07:34:14.826Z,10.90
2023-05-22T07:36:42.602Z,11.13
2023-05-22T07:39:09.930Z,9.80
2023-05-22T07:41:40.318Z,10.40
2023-05-22T07:44:09.639Z,10.87
2023-05-22T07:46:38.502Z,11.13
2023-05-22T07:49:19.872Z,12.23
2023-05-22T07:51:47.390Z,11.03
2023-05-22T07:54:16.121Z,10.53
2023-05-22T07:56:46.046Z,11.63
2023-05-22T07:59:16.272Z,10.70
2023-05-22T08:01:43.453Z,13.53
2023-05-22T08:04:10.550Z,10.07
2023-05-22T08:06:37.628Z,12.20
2023-05-22T08:09:05.119Z,9.50
2023-05-22T08:11:32.830Z,10.90
2023-05-22T08:13:59.785Z,10.77
2023-05-22T08:16:26.763Z,10.57
2023-05-22T08:18:53.720Z,11.77
2023-05-22T08:21:20.748Z,9.47
2023-05-22T08:23:47.645Z,10.43
2023-05-22T08:26:15.443Z,9.50
2023-05-22T08:28:44.505Z,10.10
2023-05-22T08:31:12.178Z,12.70
2023-05-22T08:33:41.930Z,9.90
2023-05-22T08:36:08.843Z,10.53
2023-05-22T08:38:35.786Z,9.10
2023-05-22T08:41:02.921Z,9.80
2023-05-22T08:43:29.999Z,10.63
2023-05-22T08:46:01.138Z,9.13
2023-05-22T08:48:34.604Z,9.07
2023-05-22T08:51:06.061Z,9.67
2023-05-22T08:53:37.253Z,12.23
2023-05-22T08:56:07.085Z,10.03
2023-05-22T08:58:36.164Z,9.33
2023-05-22T09:01:04.709Z,10.87
2023-05-22T09:03:38.059Z,8.47
2023-05-22T09:06:10.597Z,9.87
2023-05-22T09:08:38.487Z,9.43
2023-05-22T09:11:05.366Z,9.33
2023-05-22T09:13:32.506Z,9.20
2023-05-22T09:16:07.914Z,9.70
2023-05-22T09:18:34.885Z,10.17
2023-05-22T09:21:04.900Z,10.17
2023-05-22T09:23:34.367Z,8.50
2023-05-22T09:28:35.565Z,8.90
2023-05-22T09:31:04.495Z,10.20
2023-05-22T09:33:32.532Z,8.50
2023-05-22T09:35:59.517Z,7.60
2023-05-22T09:38:29.605Z,8.67
2023-05-22T09:40:57.445Z,8.40
2023-05-22T09:43:25.870Z,8.10
2023-05-22T09:46:02.512Z,7.63
2023-05-22T09:48:29.636Z,12.03
2023-05-22T09:51:00.009Z,10.00
2023-05-22T09:53:29.201Z,7.97
2023-05-22T09:55:57.362Z,8.70
2023-05-22T09:58:27.429Z,9.53
2023-05-22T10:00:58.548Z,8.20
2023-05-22T10:03:27.627Z,8.27
2023-05-22T10:05:56.690Z,9.70
2023-05-22T10:08:50.147Z,8.33
2023-05-22T10:11:17.754Z,8.03
2023-05-22T10:13:47.720Z,8.00
2023-05-22T10:16:16.893Z,7.50
2023-05-22T10:18:46.577Z,7.97
2023-05-22T10:21:13.670Z,7.80
2023-05-22T10:23:41.409Z,7.40
2023-05-22T10:26:09.009Z,8.10
2023-05-22T10:28:42.148Z,7.97
2023-05-22T10:31:23.019Z,7.80
2023-05-22T10:34:21.381Z,5.77
2023-05-22T10:36:58.230Z,8.03
2023-05-22T10:39:57.887Z,7.50
2023-05-22T10:42:25.116Z,6.57
2023-05-22T10:44:53.521Z,7.67
2023-05-22T10:47:20.516Z,6.70
2023-05-22T10:49:49.832Z,7.23
2023-05-22T10:52:19.177Z,7.30
2023-05-22T10:54:46.520Z,8.30
2023-05-22T10:57:16.432Z,7.43
2023-05-22T10:59:44.302Z,7.40
2023-05-22T11:02:22.506Z,8.50
2023-05-22T11:04:49.742Z,8.07
2023-05-22T11:07:16.760Z,7.87
2023-05-22T11:09:47.867Z,6.37
2023-05-22T11:12:21.604Z,6.37
2023-05-22T11:14:55.527Z,6.70
2023-05-22T11:17:30.142Z,6.63
2023-05-22T11:19:59.036Z,6.77
2023-05-22T11:22:41.567Z,7.20
2023-05-22T11:25:19.335Z,7.70
2023-05-22T11:27:48.064Z,7.40
2023-05-22T11:30:16.184Z,7.10
2023-05-22T11:32:45.335Z,5.40
2023-05-22T11:35:19.805Z,7.07
2023-05-22T11:37:47.895Z,6.97
2023-05-22T11:40:19.390Z,6.63
2023-05-22T11:42:46.709Z,6.80
2023-05-22T11:45:14.474Z,6.00
2023-05-22T11:47:42.166Z,6.67
2023-05-22T11:50:10.601Z,8.50
2023-05-22T11:52:39.933Z,6.13
2023-05-22T11:55:27.827Z,6.00
2023-05-22T11:57:55.953Z,6.40
2023-05-22T12:00:23.208Z,6.10
2023-05-22T12:02:50.391Z,5.67
2023-05-22T12:05:17.411Z,8.00
2023-05-22T12:07:45.019Z,9.73
2023-05-22T12:10:13.874Z,5.83
2023-05-22T12:12:40.891Z,6.77
2023-05-22T12:15:08.393Z,5.40
2023-05-22T12:17:38.820Z,6.47
2023-05-22T12:20:07.457Z,5.33
2023-05-22T12:22:40.682Z,6.03
2023-05-22T12:25:15.357Z,7.23
2023-05-22T12:27:43.827Z,6.80
2023-05-22T12:30:13.645Z,5.97
2023-05-22T12:32:41.064Z,6.33
2023-05-22T12:35:16.141Z,7.23
2023-05-22T12:37:49.000Z,5.67
2023-05-22T12:40:16.158Z,6.33
2023-05-22T12:42:43.277Z,6.67
2023-05-22T12:45:11.769Z,8.63
2023-05-22T12:47:38.675Z,6.43
2023-05-22T12:50:06.153Z,5.90
2023-05-22T12:52:33.126Z,6.80
2023-05-22T12:55:00.028Z,6.73
2023-05-22T12:57:27.095Z,6.03
2023-05-22T12:59:53.988Z,7.13
2023-05-22T13:02:21.033Z,6.97
2023-05-22T13:04:47.955Z,5.63
2023-05-22T13:07:14.882Z,5.83
2023-05-22T13:09:41.775Z,7.03
2023-05-22T13:12:10.768Z,6.67
2023-05-22T13:14:40.622Z,5.33
2023-05-22T13:17:08.023Z,6.57
2023-05-22T13:19:35.217Z,9.53
2023-05-22T13:22:02.160Z,9.53
2023-05-22T13:24:30.403Z,5.97
2023-05-22T13:26:57.358Z,6.43
2023-05-22T13:29:24.272Z,5.87
2023-05-22T13:31:51.584Z,5.90
2023-05-22T13:34:18.786Z,5.47
2023-05-22T13:36:46.034Z,5.47
2023-05-22T13:39:12.899Z,5.30
2023-05-22T13:41:39.842Z,7.70
2023-05-22T13:44:06.755Z,5.70
2023-05-22T13:46:33.718Z,6.10
2023-05-22T13:49:00.715Z,5.80
2023-05-22T13:51:27.707Z,5.77
2023-05-22T13:53:54.667Z,6.03
2023-05-22T13:56:26.540Z,5.80
2023-05-22T13:58:53.475Z,5.63
2023-05-22T14:01:20.466Z,4.40
2023-05-22T14:03:47.545Z,5.03
2023-05-22T14:06:14.512Z,6.60
2023-05-22T14:08:41.630Z,5.87
2023-05-22T14:11:08.606Z,6.50
2023-05-22T14:13:36.178Z,5.60
2023-05-22T14:16:03.196Z,5.97
2023-05-22T14:18:31.523Z,6.17
2023-05-22T14:20:58.390Z,6.07
2023-05-22T14:23:25.420Z,5.63
2023-05-22T14:25:52.319Z,6.80
2023-05-22T14:28:19.885Z,6.27
2023-05-22T14:30:46.943Z,7.53
2023-05-22T14:33:13.882Z,5.73
2023-05-22T14:35:41.175Z,7.20
2023-05-22T14:38:08.382Z,11.03
2023-05-22T14:40:35.266Z,5.77
2023-05-22T14:43:02.193Z,6.03
2023-05-22T14:45:29.105Z,5.80
2023-05-22T14:47:56.026Z,7.10
2023-05-22T14:50:22.960Z,6.37
2023-05-22T14:52:50.046Z,5.80
2023-05-22T14:55:17.843Z,5.70
2023-05-22T14:57:45.101Z,6.07
2023-05-22T15:00:12.885Z,6.00
2023-05-22T15:02:40.708Z,7.10
2023-05-22T15:05:08.187Z,6.43
2023-05-22T15:07:43.868Z,6.93
2023-05-22T15:10:12.394Z,7.20
2023-05-22T15:12:39.426Z,6.87
2023-05-22T15:15:06.772Z,8.90
2023-05-22T15:17:33.706Z,6.83
2023-05-22T15:20:00.700Z,8.07
2023-05-22T15:22:27.530Z,6.60
2023-05-22T15:25:07.991Z,8.10
2023-05-22T15:27:36.041Z,6.23
2023-05-22T15:30:03.919Z,6.93
2023-05-22T15:32:32.605Z,7.53
2023-05-22T15:34:59.566Z,7.70
2023-05-22T15:37:27.091Z,5.90
2023-05-22T15:39:54.044Z,6.07
2023-05-22T15:42:22.097Z,7.00
2023-05-22T15:44:49.046Z,6.93
2023-05-22T15:47:16.874Z,7.00
2023-05-22T15:49:43.749Z,6.53
2023-05-22T15:52:10.635Z,6.87
2023-05-22T15:54:37.530Z,7.30
2023-05-22T15:57:04.759Z,6.23
2023-05-22T15:59:31.606Z,7.43
2023-05-22T16:01:58.635Z,8.17
2023-05-22T16:04:25.656Z,6.93
2023-05-22T16:06:52.593Z,7.87
2023-05-22T16:09:19.992Z,6.57
2023-05-22T16:11:46.960Z,7.77
2023-05-22T16:14:13.885Z,5.93
2023-05-22T16:16:41.246Z,6.57
2023-05-22T16:19:08.541Z,6.77
2023-05-22T16:21:36.111Z,6.77
2023-05-22T16:24:04.891Z,6.77
2023-05-22T16:26:31.818Z,6.67
2023-05-22T16:28:58.734Z,7.50
2023-05-22T16:31:25.665Z,13.50
2023-05-22T16:33:53.472Z,17.80
2023-05-22T16:36:20.401Z,19.27
2023-05-22T16:38:47.309Z,22.60
2023-05-22T16:41:14.254Z,9.50
2023-05-22T16:43:41.278Z,8.90
2023-05-22T16:46:08.201Z,7.50
2023-05-22T16:48:35.653Z,8.67
2023-05-22T16:51:02.628Z,7.23
2023-05-22T16:53:29.574Z,7.60
2023-05-22T16:55:56.560Z,7.00
2023-05-22T16:58:23.459Z,7.03
2023-05-22T17:00:50.573Z,8.77
2023-05-22T17:03:17.745Z,7.40
2023-05-22T17:05:45.402Z,8.07
2023-05-22T17:08:12.389Z,7.70
2023-05-22T17:10:39.593Z,7.67
2023-05-22T17:13:06.618Z,8.20
2023-05-22T17:15:34.062Z,7.73
2023-05-22T17:18:01.161Z,7.87
2023-05-22T17:20:29.582Z,7.10
2023-05-22T17:22:56.646Z,7.50
2023-05-22T17:25:23.567Z,7.40
2023-05-22T17:27:50.498Z,8.00
2023-05-22T17:30:17.930Z,8.13
2023-05-22T17:32:45.525Z,7.43
2023-05-22T17:35:12.474Z,7.17
2023-05-22T17:37:39.471Z,10.30
2023-05-22T17:40:07.287Z,8.00
2023-05-22T17:42:34.145Z,7.60
2023-05-22T17:45:01.152Z,7.93
2023-05-22T17:47:28.048Z,6.83
2023-05-22T17:49:54.987Z,7.80
2023-05-22T17:52:22.103Z,7.40
2023-05-22T17:54:50.131Z,7.93
2023-05-22T17:57:17.106Z,7.10
2023-05-22T17:59:44.317Z,8.50
2023-05-22T18:02:11.534Z,8.13
2023-05-22T18:04:38.445Z,8.27
2023-05-22T18:07:05.596Z,7.97
2023-05-22T18:09:32.987Z,9.10
2023-05-22T18:12:01.850Z,8.27
2023-05-22T18:14:28.784Z,7.20
2023-05-22T18:16:55.708Z,8.47
2023-05-22T18:19:22.683Z,7.83
2023-05-22T18:21:49.675Z,8.60
2023-05-22T18:24:16.670Z,8.27
2023-05-22T18:26:43.605Z,8.50
2023-05-22T18:29:10.564Z,8.10
2023-05-22T18:31:37.542Z,7.30
2023-05-22T18:34:04.502Z,7.60
2023-05-22T18:36:32.011Z,9.50
2023-05-22T18:38:58.969Z,9.70
2023-05-22T18:41:26.721Z,8.83
2023-05-22T18:43:53.660Z,9.10
2023-05-22T18:46:20.694Z,8.80
2023-05-22T18:48:47.722Z,10.80
2023-05-22T18:51:16.756Z,9.23
2023-05-22T18:53:43.720Z,10.03
2023-05-22T18:56:10.712Z,9.67
2023-05-22T18:58:41.600Z,10.30
2023-05-22T19:01:08.651Z,10.80
2023-05-22T19:03:35.990Z,9.47
2023-05-22T19:06:02.965Z,11.77
2023-05-22T19:08:31.376Z,12.00
2023-05-22T19:11:01.616Z,11.03
2023-05-22T19:13:29.586Z,10.80
2023-05-22T19:15:57.491Z,13.83
2023-05-22T19:18:24.939Z,12.70
2023-05-22T19:20:51.815Z,13.30
2023-05-22T19:23:18.916Z,14.67
2023-05-22T19:25:45.952Z,13.87
2023-05-22T19:28:12.954Z,14.00
2023-05-22T19:30:40.359Z,24.20
2023-05-22T19:33:09.046Z,19.90
2023-05-22T19:35:36.197Z,27.27
2023-05-22T19:38:03.129Z,18.07
2023-05-22T19:40:30.061Z,32.70
2023-05-22T19:42:57.226Z,43.03
2023-05-22T19:45:27.659Z,41.37
2023-05-22T19:47:55.980Z,49.73
2023-05-22T19:50:23.012Z,57.57
2023-05-22T19:52:50.101Z,64.87
2023-05-22T19:55:17.081Z,70.60
2023-05-22T19:57:46.356Z,63.67
2023-05-22T20:00:16.634Z,62.23
2023-05-22T20:02:43.656Z,63.63
2023-05-22T20:05:13.308Z,51.87
2023-05-22T20:07:40.606Z,36.70
2023-05-22T20:10:10.858Z,35.10
2023-05-22T20:12:38.219Z,24.90
2023-05-22T20:15:07.139Z,54.87
2023-05-22T20:17:34.515Z,39.83
2023-05-22T20:20:01.559Z,42.13
2023-05-22T20:22:28.707Z,23.70
2023-05-22T20:24:56.125Z,26.57
2023-05-22T20:27:23.039Z,18.30
2023-05-22T20:29:50.507Z,21.23
2023-05-22T20:32:17.687Z,15.73
2023-05-22T20:34:47.925Z,14.60
2023-05-22T20:37:14.900Z,15.63
2023-05-22T20:39:46.617Z,13.57
2023-05-22T20:42:14.686Z,16.30
2023-05-22T20:44:41.667Z,16.00
2023-05-22T20:47:09.431Z,13.50
2023-05-22T20:49:36.400Z,16.07
2023-05-22T20:52:04.784Z,18.03
2023-05-22T20:54:34.753Z,13.07
2023-05-22T20:57:02.413Z,20.73
2023-05-22T20:59:29.556Z,16.77
2023-05-22T21:01:58.073Z,31.13
2023-05-22T21:04:29.150Z,15.33
2023-05-22T21:06:56.187Z,33.23
2023-05-22T21:09:23.268Z,27.73
2023-05-22T21:11:50.261Z,27.00
2023-05-22T21:14:17.521Z,24.53
2023-05-22T21:16:44.638Z,33.07
2023-05-22T21:19:11.599Z,36.20
2023-05-22T21:21:41.944Z,25.53
2023-05-22T21:24:12.273Z,33.47
2023-05-22T21:26:39.326Z,23.50
2023-05-22T21:29:06.543Z,27.67
2023-05-22T21:31:35.324Z,30.27
2023-05-22T21:34:02.844Z,26.73
2023-05-22T21:36:29.725Z,22.63
2023-05-22T21:38:57.911Z,23.17
2023-05-22T21:41:24.762Z,20.07
2023-05-22T21:43:51.683Z,16.63
2023-05-22T21:46:18.955Z,14.80
2023-05-22T21:48:46.418Z,24.03
2023-05-22T21:51:13.313Z,24.43
2023-05-22T21:53:40.220Z,22.43
2023-05-22T21:56:07.338Z,15.87
2023-05-22T21:58:34.300Z,18.33
2023-05-22T22:01:01.553Z,20.70
2023-05-22T22:03:28.656Z,17.90
2023-05-22T22:05:55.827Z,17.50
2023-05-22T22:08:22.758Z,19.20
2023-05-22T22:10:49.705Z,23.97
2023-05-22T22:13:16.835Z,21.13
2023-05-22T22:15:43.977Z,22.90
2023-05-22T22:18:15.080Z,24.60
2023-05-22T22:20:45.274Z,21.27
2023-05-22T22:23:12.862Z,21.83
2023-05-22T22:25:39.798Z,19.83
2023-05-22T22:28:07.618Z,19.10
2023-05-22T22:30:35.616Z,30.50
2023-05-22T22:33:02.781Z,17.30
2023-05-22T22:35:29.918Z,17.70
2023-05-22T22:37:57.115Z,16.60
2023-05-22T22:40:26.594Z,16.90
2023-05-22T22:42:53.960Z,15.97
2023-05-22T22:45:20.975Z,15.73
2023-05-22T22:47:48.487Z,18.40
2023-05-22T22:50:15.485Z,16.17
2023-05-22T22:52:45.725Z,15.73
2023-05-22T22:55:13.721Z,17.27
2023-05-22T22:57:43.488Z,26.80
2023-05-22T23:00:13.530Z,15.40
2023-05-22T23:02:40.885Z,16.37
2023-05-22T23:05:08.421Z,18.23
2023-05-22T23:07:35.969Z,17.60
2023-05-22T23:10:03.175Z,18.40
2023-05-22T23:12:33.060Z,19.20
2023-05-22T23:15:00.037Z,18.23
2023-05-22T23:17:26.946Z,16.37
2023-05-22T23:19:53.934Z,17.90
2023-05-22T23:22:20.850Z,21.30
2023-05-22T23:24:47.744Z,17.63
2023-05-22T23:27:15.208Z,19.47
2023-05-22T23:29:42.084Z,17.13
2023-05-22T23:32:08.948Z,16.40
2023-05-22T23:34:35.984Z,20.93
2023-05-22T23:37:03.135Z,21.00
2023-05-22T23:39:30.095Z,17.17
2023-05-22T23:41:56.963Z,19.90
2023-05-22T23:44:23.972Z,17.57
2023-05-22T23:46:50.971Z,18.90
2023-05-22T23:49:17.901Z,18.23
2023-05-22T23:51:44.783Z,19.57
2023-05-22T23:54:13.394Z,15.93
2023-05-22T23:56:40.258Z,19.10
2023-05-22T23:59:07.145Z,19.13
